Time;durP1;ratioP1;P1;durP2;ratioP2;P2;SDS_P1;SDS_P2;PMS_P1;PMS_P2;Temp;Humidity;BMP_temperature;BMP_pressure;BME280_temperature;BME280_humidity;BME280_pressure;Samples;Min_cycle;Max_cycle;Signal;HPM_P1;HPM_P2
2022/08/29 00:00:37;;;;;;;;;;;;;;;;;;5054756;28;19913;-72
2022/08/29 00:03:02;;;;;;;;;;;;;;;;;;5036836;28;20484;-72
2022/08/29 00:05:28;;;;;;;;;;;;;;;;;;5029128;28;20429;-73
2022/08/29 00:07:53;;;;;;;;;;;;;;;;;;5033509;28;20368;-72
2022/08/29 00:10:18;;;;;;;;;;;;;;;;;;5016958;28;20343;-74
2022/08/29 00:12:44;;;;;;;;;;;;;;;;;;5034595;28;20339;-74
2022/08/29 00:15:10;;;;;;;;;;;;;;;;;;5033307;28;19913;-73
2022/08/29 00:17:35;;;;;;;;;;;;;;;;;;5034509;28;19920;-74
2022/08/29 00:20:00;;;;;;;;;;;;;;;;;;5033239;28;19914;-73
2022/08/29 00:22:26;;;;;;;;;;;;;;;;;;5035885;28;19925;-72
2022/08/29 00:24:51;;;;;;;;;;;;;;;;;;5053073;28;19967;-73
2022/08/29 00:27:16;;;;;;;;;;;;;;;;;;5054268;28;19913;-73
2022/08/29 00:29:42;;;;;;;;;;;;;;;;;;5036614;28;20288;-72
2022/08/29 00:32:07;;;;;;;;;;;;;;;;;;5054172;28;19948;-73
2022/08/29 00:34:33;;;;;;;;;;;;;;;;;;5053856;28;19912;-71
2022/08/29 00:36:58;;;;;;;;;;;;;;;;;;5054159;28;19920;-72
2022/08/29 00:39:23;;;;;;;;;;;;;;;;;;5039539;28;19920;-75
2022/08/29 00:41:49;;;;;;;;;;;;;;;;;;5055991;28;19923;-72
2022/08/29 00:44:15;;;;;;;;;;;;;;;;;;5073688;28;19912;-74
2022/08/29 00:46:41;;;;;;;;;;;;;;;;;;5056149;28;19948;-74
2022/08/29 00:49:06;;;;;;;;;;;;;;;;;;5073900;28;19958;-73
2022/08/29 00:51:31;;;;;;;;;;;;;;;;;;5055942;28;20459;-74
2022/08/29 00:53:57;;;;;;;;;;;;;;;;;;5073685;28;20342;-73
2022/08/29 00:56:22;;;;;;;;;;;;;;;;;;5073636;28;20260;-72
2022/08/29 00:58:48;;;;;;;;;;;;;;;;;;5057162;28;19959;-72
2022/08/29 01:01:13;;;;;;;;;;;;;;;;;;5035827;28;20007;-74
2022/08/29 01:03:40;;;;;;;;;;;;;;;;;;5053408;28;20376;-74
2022/08/29 01:06:05;;;;;;;;;;;;;;;;;;5053350;28;19963;-73
2022/08/29 01:08:31;;;;;;;;;;;;;;;;;;5053459;28;19920;-74
2022/08/29 01:13:40;;;;;;;;;;;;;;;;;;5035422;28;19924;-73
2022/08/29 01:16:06;;;;;;;;;;;;;;;;;;5066733;28;19913;-73
2022/08/29 01:18:32;;;;;;;;;;;;;;;;;;5073215;28;20415;-73
2022/08/29 01:20:57;;;;;;;;;;;;;;;;;;5055408;28;20273;-73
2022/08/29 01:23:22;;;;;;;;;;;;;;;;;;5072921;28;20019;-74
2022/08/29 01:25:48;;;;;;;;;;;;;;;;;;5038854;28;20002;-74
2022/08/29 01:28:13;;;;;;;;;;;;;;;;;;5073096;28;19952;-74
2022/08/29 01:30:39;;;;;;;;;;;;;;;;;;5073023;28;20367;-73
2022/08/29 01:33:05;;;;;;;;;;;;;;;;;;5060411;28;20543;-73
2022/08/29 01:35:31;;;;;;;;;;;;;;;;;;5035130;28;19924;-74
2022/08/29 01:37:56;;;;;;;;;;;;;;;;;;5045543;28;19984;-73
2022/08/29 01:40:22;;;;;;;;;;;;;;;;;;5072999;28;20050;-73
2022/08/29 01:42:47;;;;;;;;;;;;;;;;;;5054562;28;19916;-74
2022/08/29 01:45:12;;;;;;;;;;;;;;;;;;5055104;28;19919;-74
2022/08/29 01:47:38;;;;;;;;;;;;;;;;;;5072644;28;19917;-74
2022/08/29 01:50:03;;;;;;;;;;;;;;;;;;5038555;28;19912;-73
2022/08/29 01:52:30;;;;;;;;;;;;;;;;;;5038369;28;19916;-73
2022/08/29 01:54:56;;;;;;;;;;;;;;;;;;5055737;28;19913;-73
2022/08/29 01:57:21;;;;;;;;;;;;;;;;;;5052630;28;19939;-74
2022/08/29 01:59:47;;;;;;;;;;;;;;;;;;5052526;28;19924;-73
2022/08/29 02:02:15;;;;;;;;;;;;;;;;;;5034723;28;19917;-72
2022/08/29 02:04:40;;;;;;;;;;;;;;;;;;5034576;28;19913;-73
2022/08/29 02:07:05;;;;;;;;;;;;;;;;;;5052476;28;20352;-73
2022/08/29 02:09:31;;;;;;;;;;;;;;;;;;5052347;28;19913;-72
2022/08/29 02:11:57;;;;;;;;;;;;;;;;;;5049584;28;19913;-75
2022/08/29 02:14:22;;;;;;;;;;;;;;;;;;5072010;28;19923;-72
2022/08/29 02:16:47;;;;;;;;;;;;;;;;;;5037848;28;19912;-74
2022/08/29 02:19:13;;;;;;;;;;;;;;;;;;5072211;28;20236;-71
2022/08/29 02:21:39;;;;;;;;;;;;;;;;;;5053391;28;19932;-72
2022/08/29 02:24:04;;;;;;;;;;;;;;;;;;5053964;28;19912;-72
2022/08/29 02:26:30;;;;;;;;;;;;;;;;;;5072259;28;19942;-72
2022/08/29 02:28:56;;;;;;;;;;;;;;;;;;5064571;28;19913;-74
2022/08/29 02:31:21;;;;;;;;;;;;;;;;;;5052081;28;19912;-73
2022/08/29 02:33:46;;;;;;;;;;;;;;;;;;5034318;28;19913;-73
2022/08/29 02:36:12;;;;;;;;;;;;;;;;;;5052039;28;20360;-73
2022/08/29 02:38:38;;;;;;;;;;;;;;;;;;5052047;28;19916;-73
2022/08/29 02:41:03;;;;;;;;;;;;;;;;;;5052049;28;20007;-74
2022/08/29 02:43:28;;;;;;;;;;;;;;;;;;5034055;28;20430;-72
2022/08/29 02:45:54;;;;;;;;;;;;;;;;;;5058588;28;20104;-74
2022/08/29 02:48:20;;;;;;;;;;;;;;;;;;5072025;28;20384;-73
2022/08/29 02:50:45;;;;;;;;;;;;;;;;;;5072228;28;20378;-74
2022/08/29 02:53:10;;;;;;;;;;;;;;;;;;5053889;28;19939;-74
2022/08/29 02:55:36;;;;;;;;;;;;;;;;;;5071854;28;20014;-73
2022/08/29 02:58:01;;;;;;;;;;;;;;;;;;5071836;28;19935;-74
2022/08/29 03:00:26;;;;;;;;;;;;;;;;;;5071900;28;20160;-74
2022/08/29 03:02:52;;;;;;;;;;;;;;;;;;5071690;28;19942;-72
2022/08/29 03:05:17;;;;;;;;;;;;;;;;;;5070990;28;19923;-74
2022/08/29 03:07:42;;;;;;;;;;;;;;;;;;5071848;28;19913;-73
2022/08/29 03:10:08;;;;;;;;;;;;;;;;;;5071835;28;20383;-73
2022/08/29 03:12:33;;;;;;;;;;;;;;;;;;5071504;28;19947;-75
2022/08/29 03:14:58;;;;;;;;;;;;;;;;;;5071569;28;19951;-75
2022/08/29 03:17:24;;;;;;;;;;;;;;;;;;5071754;28;20296;-72
2022/08/29 03:19:49;;;;;;;;;;;;;;;;;;5071736;28;19986;-74
2022/08/29 03:22:14;;;;;;;;;;;;;;;;;;5054947;28;19960;-73
2022/08/29 03:24:40;;;;;;;;;;;;;;;;;;5017215;28;19917;-73
2022/08/29 03:27:05;;;;;;;;;;;;;;;;;;5051466;28;19913;-72
2022/08/29 03:29:31;;;;;;;;;;;;;;;;;;5033704;28;20352;-72
2022/08/29 03:31:57;;;;;;;;;;;;;;;;;;5033983;28;20367;-73
2022/08/29 03:34:22;;;;;;;;;;;;;;;;;;5054854;28;19952;-74
2022/08/29 03:36:48;;;;;;;;;;;;;;;;;;5037435;28;19920;-73
2022/08/29 03:39:13;;;;;;;;;;;;;;;;;;5055099;28;19989;-73
2022/08/29 03:41:39;;;;;;;;;;;;;;;;;;5055060;28;19920;-73
2022/08/29 03:44:04;;;;;;;;;;;;;;;;;;5054844;28;19913;-75
2022/08/29 03:46:30;;;;;;;;;;;;;;;;;;5037873;28;19913;-73
2022/08/29 03:48:55;;;;;;;;;;;;;;;;;;5060594;28;19913;-74
2022/08/29 03:51:21;;;;;;;;;;;;;;;;;;5051913;28;19944;-73
2022/08/29 03:53:46;;;;;;;;;;;;;;;;;;5059255;28;19912;-74
2022/08/29 03:56:12;;;;;;;;;;;;;;;;;;5048237;28;19919;-75
2022/08/29 03:58:38;;;;;;;;;;;;;;;;;;5074810;28;20382;-74
2022/08/29 04:01:03;;;;;;;;;;;;;;;;;;5074910;28;19919;-74
2022/08/29 04:03:28;;;;;;;;;;;;;;;;;;5074579;28;19917;-73
2022/08/29 04:05:54;;;;;;;;;;;;;;;;;;5085081;22;20011;-75
2022/08/29 04:08:19;;;;;;;;;;;;;;;;;;5074715;28;20391;-76
2022/08/29 04:10:44;;;;;;;;;;;;;;;;;;5056728;28;20288;-75
2022/08/29 04:13:10;;;;;;;;;;;;;;;;;;5056888;28;19916;-76
2022/08/29 04:15:36;;;;;;;;;;;;;;;;;;5061281;28;19908;-74
2022/08/29 04:18:01;;;;;;;;;;;;;;;;;;5059197;28;19983;-76
2022/08/29 04:20:26;;;;;;;;;;;;;;;;;;5075214;28;20399;-75
2022/08/29 04:22:52;;;;;;;;;;;;;;;;;;5074395;28;20449;-75
2022/08/29 04:25:18;;;;;;;;;;;;;;;;;;5047388;28;19916;-75
2022/08/29 04:27:43;;;;;;;;;;;;;;;;;;5036723;28;19917;-75
2022/08/29 04:30:09;;;;;;;;;;;;;;;;;;5054116;28;20011;-75
2022/08/29 04:32:34;;;;;;;;;;;;;;;;;;5035902;28;19967;-75
2022/08/29 04:34:59;;;;;;;;;;;;;;;;;;5036321;28;19916;-75
2022/08/29 04:37:25;;;;;;;;;;;;;;;;;;5054057;28;19920;-75
2022/08/29 04:39:50;;;;;;;;;;;;;;;;;;5036057;28;20001;-75
2022/08/29 04:42:17;;;;;;;;;;;;;;;;;;5052497;28;20368;-75
2022/08/29 04:44:42;;;;;;;;;;;;;;;;;;5072592;28;19991;-76
2022/08/29 04:47:07;;;;;;;;;;;;;;;;;;5055937;28;20350;-76
2022/08/29 04:49:33;;;;;;;;;;;;;;;;;;5055910;28;19912;-75
2022/08/29 04:51:58;;;;;;;;;;;;;;;;;;5055738;28;19919;-76
2022/08/29 04:54:23;;;;;;;;;;;;;;;;;;5073453;28;20368;-76
2022/08/29 04:56:49;;;;;;;;;;;;;;;;;;5055619;28;20396;-76
2022/08/29 04:59:14;;;;;;;;;;;;;;;;;;5073337;28;20398;-77
2022/08/29 05:01:40;;;;;;;;;;;;;;;;;;5072443;28;19916;-76
2022/08/29 05:04:05;;;;;;;;;;;;;;;;;;5073212;28;20432;-76
2022/08/29 05:06:30;;;;;;;;;;;;;;;;;;5073013;28;19916;-76
2022/08/29 05:08:56;;;;;;;;;;;;;;;;;;5055590;28;20383;-75
2022/08/29 05:11:21;;;;;;;;;;;;;;;;;;5073194;28;19947;-75
2022/08/29 05:13:46;;;;;;;;;;;;;;;;;;5072982;28;19908;-77
2022/08/29 05:16:12;;;;;;;;;;;;;;;;;;5072959;28;20390;-76
2022/08/29 05:18:38;;;;;;;;;;;;;;;;;;5061511;28;19951;-77
2022/08/29 05:21:03;;;;;;;;;;;;;;;;;;5052743;28;20380;-74
2022/08/29 05:23:29;;;;;;;;;;;;;;;;;;5052686;28;20008;-75
2022/08/29 05:25:54;;;;;;;;;;;;;;;;;;5035084;28;19913;-76
2022/08/29 05:28:19;;;;;;;;;;;;;;;;;;5034877;28;20415;-76
2022/08/29 05:30:45;;;;;;;;;;;;;;;;;;5035167;28;19913;-76
2022/08/29 05:33:10;;;;;;;;;;;;;;;;;;5052193;28;19924;-73
2022/08/29 05:35:37;;;;;;;;;;;;;;;;;;5039144;28;19912;-76
2022/08/29 05:38:02;;;;;;;;;;;;;;;;;;5072086;28;19995;-77
2022/08/29 05:40:28;;;;;;;;;;;;;;;;;;5038123;28;20367;-76
2022/08/29 05:42:53;;;;;;;;;;;;;;;;;;5054252;28;20020;-76
2022/08/29 05:45:18;;;;;;;;;;;;;;;;;;5072205;28;19958;-75
2022/08/29 05:47:44;;;;;;;;;;;;;;;;;;5072077;28;19958;-76
2022/08/29 05:50:10;;;;;;;;;;;;;;;;;;5054668;28;19918;-76
2022/08/29 05:52:35;;;;;;;;;;;;;;;;;;5021815;28;20003;-76
2022/08/29 05:55:01;;;;;;;;;;;;;;;;;;5050820;28;20195;-77
2022/08/29 05:57:26;;;;;;;;;;;;;;;;;;5034126;28;19913;-74
2022/08/29 05:59:52;;;;;;;;;;;;;;;;;;5052223;28;19913;-76
2022/08/29 06:02:17;;;;;;;;;;;;;;;;;;5052124;28;19921;-76
2022/08/29 06:04:42;;;;;;;;;;;;;;;;;;5051701;28;19920;-77
2022/08/29 06:07:08;;;;;;;;;;;;;;;;;;5051814;28;20404;-76
2022/08/29 06:09:33;;;;;;;;;;;;;;;;;;5058370;28;20398;-76
2022/08/29 06:11:59;;;;;;;;;;;;;;;;;;5071867;28;19915;-76
2022/08/29 06:14:24;;;;;;;;;;;;;;;;;;5071826;28;19919;-76
2022/08/29 06:16:49;;;;;;;;;;;;;;;;;;5054099;28;19999;-75
2022/08/29 06:19:15;;;;;;;;;;;;;;;;;;5072025;28;20329;-76
2022/08/29 06:21:40;;;;;;;;;;;;;;;;;;5054041;28;20380;-77
2022/08/29 06:24:05;;;;;;;;;;;;;;;;;;5037507;28;20440;-77
2022/08/29 06:26:31;;;;;;;;;;;;;;;;;;5052944;28;20331;-76
2022/08/29 06:28:56;;;;;;;;;;;;;;;;;;5051802;28;20123;-76
2022/08/29 06:31:23;;;;;;;;;;;;;;;;;;5051741;28;19939;-76
2022/08/29 06:33:48;;;;;;;;;;;;;;;;;;5033630;28;19920;-75
2022/08/29 06:36:14;;;;;;;;;;;;;;;;;;5050631;28;19913;-76
2022/08/29 06:38:39;;;;;;;;;;;;;;;;;;5051750;28;19912;-76
2022/08/29 06:41:05;;;;;;;;;;;;;;;;;;5036071;28;19925;-76
2022/08/29 06:43:30;;;;;;;;;;;;;;;;;;5071702;28;19921;-76
2022/08/29 06:45:56;;;;;;;;;;;;;;;;;;5037183;28;19912;-77
2022/08/29 06:48:21;;;;;;;;;;;;;;;;;;5071717;28;19920;-77
2022/08/29 06:50:46;;;;;;;;;;;;;;;;;;5071874;28;19948;-75
2022/08/29 06:53:12;;;;;;;;;;;;;;;;;;5053754;28;19916;-77
2022/08/29 06:55:37;;;;;;;;;;;;;;;;;;5053453;28;19963;-76
2022/08/29 06:58:02;;;;;;;;;;;;;;;;;;5070459;28;19912;-75
2022/08/29 07:00:28;;;;;;;;;;;;;;;;;;5071604;28;19912;-76
2022/08/29 07:02:53;;;;;;;;;;;;;;;;;;5071387;28;19917;-76
2022/08/29 07:05:18;;;;;;;;;;;;;;;;;;5071099;28;20379;-76
2022/08/29 07:07:44;;;;;;;;;;;;;;;;;;5072595;28;20424;-77
2022/08/29 07:10:11;;;;;;;;;;;;;;;;;;5075415;28;19951;-75
2022/08/29 07:12:36;;;;;;;;;;;;;;;;;;5057268;28;19935;-76
2022/08/29 07:15:02;;;;;;;;;;;;;;;;;;5060938;28;20376;-76
2022/08/29 07:17:27;;;;;;;;;;;;;;;;;;5055152;28;19913;-76
2022/08/29 07:19:52;;;;;;;;;;;;;;;;;;5055481;28;19996;-77
2022/08/29 07:22:18;;;;;;;;;;;;;;;;;;5055274;28;19917;-77
2022/08/29 07:24:43;;;;;;;;;;;;;;;;;;5037578;28;19913;-77
2022/08/29 07:27:08;;;;;;;;;;;;;;;;;;5055530;28;20393;-76
2022/08/29 07:29:34;;;;;;;;;;;;;;;;;;5055604;28;19917;-76
2022/08/29 07:32:00;;;;;;;;;;;;;;;;;;5067905;28;20355;-79
2022/08/29 07:34:26;;;;;;;;;;;;;;;;;;5075009;28;20007;-77
2022/08/29 07:36:51;;;;;;;;;;;;;;;;;;5075204;28;20007;-75
2022/08/29 07:39:17;;;;;;;;;;;;;;;;;;5057569;28;19912;-76
2022/08/29 07:41:43;;;;;;;;;;;;;;;;;;5056928;28;19912;-77
2022/08/29 07:44:08;;;;;;;;;;;;;;;;;;5074945;28;19913;-76
2022/08/29 07:46:33;;;;;;;;;;;;;;;;;;5057155;28;19912;-77
2022/08/29 07:48:59;;;;;;;;;;;;;;;;;;5053418;28;19909;-76
2022/08/29 07:51:25;;;;;;;;;;;;;;;;;;5055002;28;19913;-76
2022/08/29 07:53:50;;;;;;;;;;;;;;;;;;5054693;28;19924;-77
2022/08/29 07:56:16;;;;;;;;;;;;;;;;;;5037034;28;19913;-77
2022/08/29 07:58:41;;;;;;;;;;;;;;;;;;5036712;28;19909;-77
2022/08/29 08:01:07;;;;;;;;;;;;;;;;;;5036806;28;20030;-75
2022/08/29 08:03:32;;;;;;;;;;;;;;;;;;5036242;28;19927;-76
2022/08/29 08:05:58;;;;;;;;;;;;;;;;;;5073012;28;19916;-77
2022/08/29 08:08:23;;;;;;;;;;;;;;;;;;5056515;28;19913;-75
2022/08/29 08:10:49;;;;;;;;;;;;;;;;;;5056266;28;19912;-78
2022/08/29 08:13:14;;;;;;;;;;;;;;;;;;5056413;28;20383;-76
2022/08/29 08:15:39;;;;;;;;;;;;;;;;;;5074446;28;19916;-76
2022/08/29 08:18:05;;;;;;;;;;;;;;;;;;5074199;28;19919;-76
2022/08/29 08:20:30;;;;;;;;;;;;;;;;;;5074232;28;19920;-75
2022/08/29 08:22:56;;;;;;;;;;;;;;;;;;5045042;28;19924;-76
2022/08/29 08:25:22;;;;;;;;;;;;;;;;;;5053597;28;19912;-77
2022/08/29 08:27:47;;;;;;;;;;;;;;;;;;5053886;28;19963;-76
2022/08/29 08:30:12;;;;;;;;;;;;;;;;;;5052687;28;19913;-76
2022/08/29 08:32:39;;;;;;;;;;;;;;;;;;5035777;28;19913;-76
2022/08/29 08:35:04;;;;;;;;;;;;;;;;;;5052432;28;19913;-77
2022/08/29 08:37:30;;;;;;;;;;;;;;;;;;5055786;28;20011;-77
2022/08/29 08:39:55;;;;;;;;;;;;;;;;;;5055953;28;20380;-77
2022/08/29 08:42:21;;;;;;;;;;;;;;;;;;5055605;28;19951;-76
2022/08/29 08:44:48;;;;;;;;;;;;;;;;;;5073447;28;19974;-76
2022/08/29 08:47:14;;;;;;;;;;;;;;;;;;5073649;28;19912;-77
2022/08/29 08:49:41;;;;;;;;;;;;;;;;;;5056024;28;19915;-76
2022/08/29 08:52:06;;;;;;;;;;;;;;;;;;5073333;28;19916;-76
2022/08/29 08:54:33;;;;;;;;;;;;;;;;;;5073415;28;19920;-77
2022/08/29 08:56:58;;;;;;;;;;;;;;;;;;5072458;28;19913;-77
2022/08/29 08:59:23;;;;;;;;;;;;;;;;;;5073830;28;19958;-76
2022/08/29 09:01:49;;;;;;;;;;;;;;;;;;5073291;28;20459;-76
2022/08/29 09:04:14;;;;;;;;;;;;;;;;;;5073511;28;19913;-76
2022/08/29 09:06:40;;;;;;;;;;;;;;;;;;5072969;28;19920;-75
2022/08/29 09:09:05;;;;;;;;;;;;;;;;;;5038964;28;19977;-76
2022/08/29 09:11:31;;;;;;;;;;;;;;;;;;5055444;28;20481;-75
2022/08/29 09:13:57;;;;;;;;;;;;;;;;;;5042423;28;19913;-76
2022/08/29 09:16:22;;;;;;;;;;;;;;;;;;5018770;28;19913;-76
2022/08/29 09:18:47;;;;;;;;;;;;;;;;;;5052045;28;19963;-77
2022/08/29 09:21:13;;;;;;;;;;;;;;;;;;5053031;28;19913;-76
2022/08/29 09:23:38;;;;;;;;;;;;;;;;;;5051673;28;19970;-75
2022/08/29 09:26:04;;;;;;;;;;;;;;;;;;5035155;28;19912;-77
2022/08/29 09:28:29;;;;;;;;;;;;;;;;;;5059848;28;20009;-76
2022/08/29 09:30:54;;;;;;;;;;;;;;;;;;5054576;28;20375;-77
2022/08/29 09:33:20;;;;;;;;;;;;;;;;;;5072477;28;19970;-75
2022/08/29 09:35:45;;;;;;;;;;;;;;;;;;5038203;28;19919;-76
2022/08/29 09:38:10;;;;;;;;;;;;;;;;;;5055219;28;19930;-76
2022/08/29 09:40:36;;;;;;;;;;;;;;;;;;5038544;28;19920;-75
2022/08/29 09:43:01;;;;;;;;;;;;;;;;;;5073326;28;19923;-76
2022/08/29 09:45:27;;;;;;;;;;;;;;;;;;5066577;28;19909;-76
2022/08/29 09:47:52;;;;;;;;;;;;;;;;;;5055308;28;19912;-76
2022/08/29 09:50:18;;;;;;;;;;;;;;;;;;5053485;28;19999;-77
2022/08/29 09:52:44;;;;;;;;;;;;;;;;;;5051787;28;20361;-75
2022/08/29 09:55:09;;;;;;;;;;;;;;;;;;5055189;28;19920;-82
2022/08/29 09:57:34;;;;;;;;;;;;;;;;;;5046601;28;20054;-80
2022/08/29 10:00:00;;;;;;;;;;;;;;;;;;5057763;28;19924;-80
2022/08/29 10:02:25;;;;;;;;;;;;;;;;;;5070033;28;20003;-81
2022/08/29 10:04:51;;;;;;;;;;;;;;;;;;5045478;28;19956;-81
2022/08/29 10:07:16;;;;;;;;;;;;;;;;;;5065281;28;20008;-81
2022/08/29 10:09:42;;;;;;;;;;;;;;;;;;5043862;28;19951;-80
2022/08/29 10:12:07;;;;;;;;;;;;;;;;;;5069032;28;19977;-81
2022/08/29 10:14:33;;;;;;;;;;;;;;;;;;5038364;28;19913;-80
2022/08/29 10:18:19;;;;;;;;;;;;;;;;;;5015240;28;19936;-81
2022/08/29 10:19:43;;;;;;;;;;;;;;;;;;5016812;28;19913;-87
2022/08/29 10:22:09;;;;;;;;;;;;;;;;;;5033252;28;20368;-82
2022/08/29 10:24:34;;;;;;;;;;;;;;;;;;5016138;28;20276;-79
2022/08/29 10:27:00;;;;;;;;;;;;;;;;;;5032086;28;19917;-79
2022/08/29 10:29:25;;;;;;;;;;;;;;;;;;5015289;28;19924;-80
2022/08/29 10:31:50;;;;;;;;;;;;;;;;;;5014925;28;19917;-83
2022/08/29 10:34:16;;;;;;;;;;;;;;;;;;5032746;28;20329;-82
2022/08/29 10:36:41;;;;;;;;;;;;;;;;;;5032943;28;20292;-82
2022/08/29 10:39:07;;;;;;;;;;;;;;;;;;5037221;28;20023;-82
2022/08/29 10:41:32;;;;;;;;;;;;;;;;;;5072582;28;19924;-81
2022/08/29 10:43:57;;;;;;;;;;;;;;;;;;5071840;28;20400;-80
2022/08/29 10:46:23;;;;;;;;;;;;;;;;;;5053759;28;19961;-76
2022/08/29 10:48:48;;;;;;;;;;;;;;;;;;5054737;28;19995;-80
2022/08/29 10:51:14;;;;;;;;;;;;;;;;;;5071870;28;19935;-78
2022/08/29 10:53:39;;;;;;;;;;;;;;;;;;5053705;28;20049;-79
2022/08/29 10:56:04;;;;;;;;;;;;;;;;;;5071827;28;19962;-78
2022/08/29 10:58:30;;;;;;;;;;;;;;;;;;5053755;28;19952;-77
2022/08/29 11:00:55;;;;;;;;;;;;;;;;;;5055054;28;19932;-80
2022/08/29 11:03:21;;;;;;;;;;;;;;;;;;5034231;28;19916;-80
2022/08/29 11:05:47;;;;;;;;;;;;;;;;;;5052145;28;19924;-80
2022/08/29 11:08:12;;;;;;;;;;;;;;;;;;5052210;28;19915;-79
2022/08/29 11:10:39;;;;;;;;;;;;;;;;;;5033886;28;19952;-80
2022/08/29 11:13:04;;;;;;;;;;;;;;;;;;5045381;28;19986;-79
2022/08/29 11:15:30;;;;;;;;;;;;;;;;;;5037083;28;19917;-79
2022/08/29 11:17:55;;;;;;;;;;;;;;;;;;5042793;28;19912;-81
2022/08/29 11:20:21;;;;;;;;;;;;;;;;;;5052144;28;19977;-79
2022/08/29 11:22:46;;;;;;;;;;;;;;;;;;5030454;28;20340;-80
2022/08/29 11:25:12;;;;;;;;;;;;;;;;;;5034648;28;20723;-79
2022/08/29 11:27:37;;;;;;;;;;;;;;;;;;5032054;28;19913;-80
2022/08/29 11:30:02;;;;;;;;;;;;;;;;;;5014659;28;19914;-78
2022/08/29 11:32:29;;;;;;;;;;;;;;;;;;5014423;28;19940;-79
2022/08/29 11:34:54;;;;;;;;;;;;;;;;;;5014404;28;19913;-79
2022/08/29 11:37:20;;;;;;;;;;;;;;;;;;5014225;28;19913;-80
2022/08/29 11:39:45;;;;;;;;;;;;;;;;;;5032082;28;19976;-79
2022/08/29 11:42:11;;;;;;;;;;;;;;;;;;5039233;28;19920;-80
2022/08/29 11:44:38;;;;;;;;;;;;;;;;;;5032354;28;19995;-81
2022/08/29 11:47:04;;;;;;;;;;;;;;;;;;5032071;28;20012;-79
2022/08/29 11:49:30;;;;;;;;;;;;;;;;;;5032700;28;19955;-79
2022/08/29 11:51:56;;;;;;;;;;;;;;;;;;5031636;28;19920;-81
2022/08/29 11:54:21;;;;;;;;;;;;;;;;;;5033706;28;19914;-80
2022/08/29 11:56:46;;;;;;;;;;;;;;;;;;5044477;28;19919;-80
2022/08/29 11:59:12;;;;;;;;;;;;;;;;;;5054209;28;19912;-80
2022/08/29 12:01:37;;;;;;;;;;;;;;;;;;5015692;28;19992;-80
2022/08/29 12:04:03;;;;;;;;;;;;;;;;;;5053061;28;19921;-80
2022/08/29 12:06:29;;;;;;;;;;;;;;;;;;5029360;28;19925;-79
2022/08/29 12:08:54;;;;;;;;;;;;;;;;;;5054904;28;20388;-79
2022/08/29 12:11:19;;;;;;;;;;;;;;;;;;5045169;28;19920;-80
2022/08/29 12:13:45;;;;;;;;;;;;;;;;;;5017030;28;19936;-79
2022/08/29 12:16:10;;;;;;;;;;;;;;;;;;5017084;28;19917;-80
2022/08/29 12:18:36;;;;;;;;;;;;;;;;;;5034864;28;19909;-90
2022/08/29 12:21:04;;;;;;;;;;;;;;;;;;4994818;28;19968;-80
2022/08/29 12:23:30;;;;;;;;;;;;;;;;;;5029591;28;19972;-78
2022/08/29 12:25:55;;;;;;;;;;;;;;;;;;5019779;28;19913;-79
2022/08/29 12:28:22;;;;;;;;;;;;;;;;;;5054856;28;20364;-80
2022/08/29 12:30:47;;;;;;;;;;;;;;;;;;5036779;28;19913;-79
2022/08/29 12:33:13;;;;;;;;;;;;;;;;;;5054531;28;19956;-80
2022/08/29 12:35:38;;;;;;;;;;;;;;;;;;5037957;28;19931;-89
2022/08/29 12:38:04;;;;;;;;;;;;;;;;;;5054823;28;19913;-80
2022/08/29 12:40:29;;;;;;;;;;;;;;;;;;5054230;28;20003;-78
2022/08/29 12:42:55;;;;;;;;;;;;;;;;;;5053700;28;19917;-80
2022/08/29 12:45:22;;;;;;;;;;;;;;;;;;5035997;28;20328;-80
2022/08/29 12:47:48;;;;;;;;;;;;;;;;;;5036256;28;20456;-80
2022/08/29 12:50:13;;;;;;;;;;;;;;;;;;5036587;28;19948;-80
2022/08/29 12:52:39;;;;;;;;;;;;;;;;;;5035793;28;19983;-79
2022/08/29 12:55:04;;;;;;;;;;;;;;;;;;5054033;28;19913;-78
2022/08/29 12:57:30;;;;;;;;;;;;;;;;;;5053788;28;20007;-79
2022/08/29 12:59:55;;;;;;;;;;;;;;;;;;5036040;28;19967;-76
2022/08/29 13:02:20;;;;;;;;;;;;;;;;;;5052080;28;19920;-78
2022/08/29 13:04:46;;;;;;;;;;;;;;;;;;5034892;28;20293;-79
2022/08/29 13:07:11;;;;;;;;;;;;;;;;;;5052765;28;20383;-80
2022/08/29 13:09:36;;;;;;;;;;;;;;;;;;5053278;28;19920;-78
2022/08/29 13:12:02;;;;;;;;;;;;;;;;;;5040466;28;19949;-76
2022/08/29 13:14:48;;;;;;;;;;;;;;;;;;5016618;28;19953;-74
2022/08/29 13:17:14;;;;;;;;;;;;;;;;;;5052030;28;19913;-75
2022/08/29 13:19:39;;;;;;;;;;;;;;;;;;5048154;28;20382;-76
2022/08/29 13:22:05;;;;;;;;;;;;;;;;;;5052213;28;19917;-76
2022/08/29 13:24:30;;;;;;;;;;;;;;;;;;5033561;28;19917;-75
2022/08/29 13:26:56;;;;;;;;;;;;;;;;;;5029629;28;20321;-76
2022/08/29 13:29:21;;;;;;;;;;;;;;;;;;5033795;28;20383;-77
2022/08/29 13:31:46;;;;;;;;;;;;;;;;;;5052330;28;19958;-75
2022/08/29 13:34:12;;;;;;;;;;;;;;;;;;5052541;28;19913;-77
2022/08/29 13:36:37;;;;;;;;;;;;;;;;;;5048703;28;19989;-75
2022/08/29 13:39:03;;;;;;;;;;;;;;;;;;5015101;28;20377;-75
2022/08/29 13:41:28;;;;;;;;;;;;;;;;;;5032930;28;20054;-76
2022/08/29 13:43:54;;;;;;;;;;;;;;;;;;5019683;28;19920;-75
2022/08/29 13:46:19;;;;;;;;;;;;;;;;;;5034484;28;20450;-76
2022/08/29 13:48:45;;;;;;;;;;;;;;;;;;5047110;28;19919;-76
2022/08/29 13:51:10;;;;;;;;;;;;;;;;;;5052236;28;19923;-75
2022/08/29 13:53:36;;;;;;;;;;;;;;;;;;5050749;28;20434;-75
2022/08/29 13:56:01;;;;;;;;;;;;;;;;;;5051266;28;19920;-77
2022/08/29 13:58:26;;;;;;;;;;;;;;;;;;5052247;28;19959;-75
2022/08/29 14:00:52;;;;;;;;;;;;;;;;;;5052175;28;19916;-75
2022/08/29 14:03:18;;;;;;;;;;;;;;;;;;5050885;28;19917;-75
2022/08/29 14:05:43;;;;;;;;;;;;;;;;;;5051782;28;19954;-76
2022/08/29 14:08:09;;;;;;;;;;;;;;;;;;5034673;28;20350;-76
2022/08/29 14:10:34;;;;;;;;;;;;;;;;;;5053012;28;19909;-76
2022/08/29 14:13:00;;;;;;;;;;;;;;;;;;5018272;28;20380;-76
2022/08/29 14:15:25;;;;;;;;;;;;;;;;;;5039441;28;19972;-76
2022/08/29 14:17:50;;;;;;;;;;;;;;;;;;5028499;28;19914;-76
2022/08/29 14:20:16;;;;;;;;;;;;;;;;;;5018932;28;20291;-75
2022/08/29 14:22:41;;;;;;;;;;;;;;;;;;5034777;28;19956;-75
2022/08/29 14:25:07;;;;;;;;;;;;;;;;;;5052739;28;19913;-75
2022/08/29 14:27:32;;;;;;;;;;;;;;;;;;5052697;28;19917;-77
2022/08/29 14:29:57;;;;;;;;;;;;;;;;;;5052221;28;19913;-76
2022/08/29 14:32:23;;;;;;;;;;;;;;;;;;5051328;28;20682;-76
2022/08/29 14:34:48;;;;;;;;;;;;;;;;;;5051733;28;19954;-76
2022/08/29 14:37:13;;;;;;;;;;;;;;;;;;5033689;28;19955;-77
2022/08/29 14:39:39;;;;;;;;;;;;;;;;;;5050729;28;19920;-75
2022/08/29 14:42:04;;;;;;;;;;;;;;;;;;5033673;28;19912;-76
2022/08/29 14:44:30;;;;;;;;;;;;;;;;;;5034165;28;19920;-76
2022/08/29 14:46:56;;;;;;;;;;;;;;;;;;5052022;28;20319;-76
2022/08/29 14:49:21;;;;;;;;;;;;;;;;;;5052640;28;19912;-74
2022/08/29 14:51:47;;;;;;;;;;;;;;;;;;5053978;28;20004;-75
2022/08/29 14:54:12;;;;;;;;;;;;;;;;;;5040936;28;19923;-85
2022/08/29 14:56:38;;;;;;;;;;;;;;;;;;5031799;28;19971;-81
2022/08/29 14:59:03;;;;;;;;;;;;;;;;;;5055408;28;19959;-79
2022/08/29 15:01:29;;;;;;;;;;;;;;;;;;5058454;28;19920;-83
2022/08/29 15:03:54;;;;;;;;;;;;;;;;;;5040809;28;19917;-82
2022/08/29 15:06:20;;;;;;;;;;;;;;;;;;5041246;28;19916;-81
2022/08/29 15:08:45;;;;;;;;;;;;;;;;;;5057859;28;19967;-81
2022/08/29 15:11:12;;;;;;;;;;;;;;;;;;5040146;28;20012;-82
2022/08/29 15:13:37;;;;;;;;;;;;;;;;;;5060613;28;19975;-81
2022/08/29 15:16:02;;;;;;;;;;;;;;;;;;5046613;28;20344;-79
2022/08/29 15:18:28;;;;;;;;;;;;;;;;;;5044172;28;19940;-80
2022/08/29 15:20:53;;;;;;;;;;;;;;;;;;5050192;28;20417;-82
2022/08/29 15:23:19;;;;;;;;;;;;;;;;;;5037238;28;19970;-82
2022/08/29 15:25:44;;;;;;;;;;;;;;;;;;5050722;28;19913;-82
2022/08/29 15:28:11;;;;;;;;;;;;;;;;;;5034467;28;20346;-82
2022/08/29 15:30:37;;;;;;;;;;;;;;;;;;5056111;28;19916;-82
2022/08/29 15:33:02;;;;;;;;;;;;;;;;;;5055324;28;19939;-83
2022/08/29 15:35:28;;;;;;;;;;;;;;;;;;5039540;28;19913;-83
2022/08/29 15:37:53;;;;;;;;;;;;;;;;;;5062928;28;20303;-83
2022/08/29 15:40:18;;;;;;;;;;;;;;;;;;5057744;28;19971;-83
2022/08/29 15:42:44;;;;;;;;;;;;;;;;;;5075594;28;19923;-83
2022/08/29 15:45:09;;;;;;;;;;;;;;;;;;5057712;28;19948;-83
2022/08/29 15:47:35;;;;;;;;;;;;;;;;;;5057449;28;19913;-84
2022/08/29 15:50:00;;;;;;;;;;;;;;;;;;5075398;28;20337;-83
2022/08/29 15:52:26;;;;;;;;;;;;;;;;;;5058006;28;20014;-82
2022/08/29 15:54:51;;;;;;;;;;;;;;;;;;5074271;28;19923;-82
2022/08/29 15:57:16;;;;;;;;;;;;;;;;;;5041077;28;19943;-83
2022/08/29 15:59:42;;;;;;;;;;;;;;;;;;5041120;28;20036;-82
2022/08/29 16:02:09;;;;;;;;;;;;;;;;;;5057004;28;19924;-83
2022/08/29 16:04:34;;;;;;;;;;;;;;;;;;5039905;28;20236;-82
2022/08/29 16:07:00;;;;;;;;;;;;;;;;;;5056912;28;19967;-82
2022/08/29 16:09:25;;;;;;;;;;;;;;;;;;5074989;28;19913;-83
2022/08/29 16:11:53;;;;;;;;;;;;;;;;;;5071025;28;19916;-84
2022/08/29 16:14:19;;;;;;;;;;;;;;;;;;5019828;28;19913;-83
2022/08/29 16:16:44;;;;;;;;;;;;;;;;;;5024431;28;19940;-82
2022/08/29 16:19:09;;;;;;;;;;;;;;;;;;5088971;28;19971;-82
2022/08/29 16:21:35;;;;;;;;;;;;;;;;;;5065843;28;19901;-83
2022/08/29 16:24:00;;;;;;;;;;;;;;;;;;5071880;28;19932;-83
2022/08/29 16:26:26;;;;;;;;;;;;;;;;;;5062281;28;19913;-80
2022/08/29 16:28:52;;;;;;;;;;;;;;;;;;5020214;28;20261;-82
2022/08/29 16:31:17;;;;;;;;;;;;;;;;;;5036283;28;19920;-82
2022/08/29 16:33:42;;;;;;;;;;;;;;;;;;5053782;28;20348;-83
2022/08/29 16:36:08;;;;;;;;;;;;;;;;;;5020332;28;20399;-82